createdAt,value
2019-03-02T00:02:06.643Z,47.00
2019-03-02T00:04:36.272Z,46.90
2019-03-02T00:07:08.060Z,46.57
2019-03-02T00:09:38.457Z,44.13
2019-03-02T00:12:09.343Z,43.20
2019-03-02T00:14:39.374Z,43.30
2019-03-02T00:17:10.164Z,48.97
2019-03-02T00:19:41.948Z,44.23
2019-03-02T00:22:12.493Z,47.60
2019-03-02T00:24:42.329Z,43.00
2019-03-02T00:27:13.292Z,41.57
2019-03-02T00:29:45.869Z,46.90
2019-03-02T00:32:14.122Z,44.57
2019-03-02T00:34:43.726Z,45.00
2019-03-02T00:37:14.750Z,44.17
2019-03-02T00:39:44.231Z,45.77
2019-03-02T00:42:17.008Z,45.37
2019-03-02T00:44:45.090Z,45.23
2019-03-02T00:47:14.606Z,48.07
2019-03-02T00:49:44.083Z,44.63
2019-03-02T00:52:14.895Z,48.67
2019-03-02T00:54:47.349Z,45.70
2019-03-02T00:57:18.737Z,42.10
2019-03-02T00:59:48.022Z,49.27
2019-03-02T01:02:17.539Z,42.50
2019-03-02T01:04:47.519Z,47.10
2019-03-02T01:07:20.714Z,43.13
2019-03-02T01:09:49.435Z,42.20
2019-03-02T01:12:19.247Z,48.77
2019-03-02T01:14:48.731Z,41.60
2019-03-02T01:17:19.847Z,42.37
2019-03-02T01:19:52.601Z,40.57
2019-03-02T01:22:22.730Z,43.30
2019-03-02T01:24:52.312Z,42.67
2019-03-02T01:27:22.127Z,40.87
2019-03-02T01:29:54.380Z,40.90
2019-03-02T01:32:22.835Z,42.57
2019-03-02T01:34:52.314Z,39.73
2019-03-02T01:37:23.330Z,42.20
2019-03-02T01:39:52.815Z,43.33
2019-03-02T01:42:25.881Z,49.05
2019-03-02T01:44:53.746Z,42.40
2019-03-02T01:47:24.558Z,45.07
2019-03-02T01:49:54.047Z,45.27
2019-03-02T01:52:23.583Z,43.90
2019-03-02T01:54:55.733Z,41.30
2019-03-02T01:57:25.610Z,37.25
2019-03-02T01:59:55.091Z,39.00
2019-03-02T02:02:24.611Z,36.30
2019-03-02T02:04:54.553Z,34.35
2019-03-02T02:07:27.139Z,33.13
2019-03-02T02:09:56.632Z,30.72
2019-03-02T02:12:28.847Z,29.10
2019-03-02T02:14:57.714Z,28.50
2019-03-02T02:17:28.479Z,28.42
2019-03-02T02:19:58.001Z,27.90
2019-03-02T02:22:27.482Z,27.80
2019-03-02T02:25:00.595Z,29.63
2019-03-02T02:27:28.207Z,36.23
2019-03-02T02:29:57.818Z,39.77
2019-03-02T02:32:27.311Z,36.90
2019-03-02T02:35:01.036Z,43.85
2019-03-02T02:37:32.343Z,41.08
2019-03-02T02:39:59.093Z,43.65
2019-03-02T02:42:28.572Z,40.85
2019-03-02T02:44:58.083Z,37.08
2019-03-02T02:47:29.050Z,37.80
2019-03-02T02:49:58.585Z,34.90
2019-03-02T02:52:29.585Z,36.53
2019-03-02T02:55:02.356Z,33.18
2019-03-02T02:57:33.624Z,39.63
2019-03-02T03:00:02.932Z,34.43
2019-03-02T03:02:33.894Z,35.88
2019-03-02T03:05:03.407Z,34.15
2019-03-02T03:07:34.399Z,33.45
2019-03-02T03:10:05.932Z,36.42
2019-03-02T03:12:36.904Z,33.20
2019-03-02T03:15:07.147Z,31.70
2019-03-02T03:17:38.340Z,32.80
2019-03-02T03:20:10.729Z,38.38
2019-03-02T03:22:41.052Z,34.20
2019-03-02T03:25:13.913Z,36.42
2019-03-02T03:27:47.659Z,40.08
2019-03-02T03:30:15.144Z,41.58
2019-03-02T03:32:54.153Z,41.50
2019-03-02T03:35:19.751Z,39.88
2019-03-02T03:37:51.271Z,40.73
2019-03-02T03:40:25.377Z,41.15
2019-03-02T03:42:51.940Z,45.00
2019-03-02T03:45:21.388Z,45.28
2019-03-02T03:47:52.175Z,39.25
2019-03-02T03:50:21.704Z,38.65
2019-03-02T03:52:51.187Z,37.55
2019-03-02T03:55:25.051Z,35.45
2019-03-02T03:57:55.676Z,35.73
2019-03-02T04:00:25.398Z,35.58
2019-03-02T04:02:54.901Z,37.98
2019-03-02T04:05:24.390Z,34.15
2019-03-02T04:07:53.842Z,34.88
2019-03-02T04:10:26.183Z,32.55
2019-03-02T04:13:03.873Z,34.27
2019-03-02T04:15:27.000Z,33.02
2019-03-02T04:17:56.555Z,33.65
2019-03-02T04:20:29.261Z,36.77
2019-03-02T04:23:01.843Z,30.23
2019-03-02T04:25:32.631Z,34.70
2019-03-02T04:28:02.146Z,30.48
2019-03-02T04:30:32.973Z,35.17
2019-03-02T04:33:06.022Z,32.17
2019-03-02T04:35:35.246Z,30.90
2019-03-02T04:38:04.728Z,33.30
2019-03-02T04:40:34.214Z,32.85
2019-03-02T04:43:03.728Z,29.82
2019-03-02T04:45:36.383Z,30.20
2019-03-02T04:48:04.729Z,30.32
2019-03-02T04:50:35.430Z,27.65
2019-03-02T04:53:04.958Z,31.90
2019-03-02T04:55:34.456Z,29.57
2019-03-02T04:58:03.909Z,30.55
2019-03-02T05:00:34.795Z,31.97
2019-03-02T05:03:04.311Z,28.65
2019-03-02T05:05:34.999Z,29.05
2019-03-02T05:08:05.291Z,28.57
2019-03-02T05:10:35.699Z,28.05
2019-03-02T05:13:05.217Z,31.87
2019-03-02T05:15:34.704Z,28.70
2019-03-02T05:18:04.155Z,28.75
2019-03-02T05:20:33.638Z,27.73
2019-03-02T05:23:03.089Z,27.60
2019-03-02T05:25:32.677Z,27.95
2019-03-02T05:28:03.812Z,27.87
2019-03-02T05:30:34.536Z,29.52
2019-03-02T05:33:04.052Z,27.93
2019-03-02T05:35:33.536Z,28.17
2019-03-02T05:38:03.055Z,28.60
2019-03-02T05:40:33.834Z,27.82
2019-03-02T05:43:03.297Z,30.35
2019-03-02T05:45:32.772Z,28.83
2019-03-02T05:48:04.862Z,30.65
2019-03-02T05:50:33.310Z,28.87
2019-03-02T05:53:02.746Z,26.77
2019-03-02T05:55:32.206Z,27.93
2019-03-02T05:58:01.619Z,27.62
2019-03-02T06:00:33.838Z,28.90
2019-03-02T06:03:03.538Z,28.10
2019-03-02T06:05:34.360Z,27.67
2019-03-02T06:08:03.770Z,29.25
2019-03-02T06:10:33.219Z,26.23
2019-03-02T06:13:02.711Z,26.85
2019-03-02T06:15:32.229Z,26.33
2019-03-02T06:18:04.366Z,27.77
2019-03-02T06:20:35.440Z,27.02
2019-03-02T06:23:03.748Z,27.80
2019-03-02T06:25:33.193Z,25.35
2019-03-02T06:28:02.611Z,27.27
2019-03-02T06:30:32.140Z,26.95
2019-03-02T06:33:01.554Z,26.12
2019-03-02T06:35:32.860Z,27.02
2019-03-02T06:38:03.185Z,28.20
2019-03-02T06:40:32.697Z,27.45
2019-03-02T06:43:02.110Z,25.77
2019-03-02T06:45:32.827Z,25.82
2019-03-02T06:48:02.247Z,25.88
2019-03-02T06:50:35.676Z,26.50
2019-03-02T06:53:04.098Z,25.30
2019-03-02T06:55:34.842Z,25.30
2019-03-02T06:58:04.309Z,27.00
2019-03-02T07:00:33.750Z,26.05
2019-03-02T07:03:03.234Z,27.02
2019-03-02T07:05:34.017Z,26.52
2019-03-02T07:08:03.785Z,29.48
2019-03-02T07:10:33.312Z,26.02
2019-03-02T07:13:04.361Z,25.08
2019-03-02T07:15:33.877Z,26.05
2019-03-02T07:18:10.705Z,27.27
2019-03-02T07:20:41.857Z,25.92
2019-03-02T07:23:11.349Z,27.22
2019-03-02T07:25:44.254Z,25.90
2019-03-02T07:28:13.381Z,26.50
2019-03-02T07:30:44.371Z,26.27
2019-03-02T07:33:13.799Z,24.92
2019-03-02T07:35:44.536Z,25.82
2019-03-02T07:38:16.914Z,23.38
2019-03-02T07:40:47.122Z,24.82
2019-03-02T07:43:16.630Z,24.67
2019-03-02T07:45:46.087Z,24.80
2019-03-02T07:48:15.582Z,22.22
2019-03-02T07:50:46.371Z,23.38
2019-03-02T07:53:15.892Z,23.27
2019-03-02T07:55:46.680Z,24.30
2019-03-02T07:58:16.639Z,24.27
2019-03-02T08:00:48.841Z,24.30
2019-03-02T08:03:18.356Z,24.15
2019-03-02T08:05:50.810Z,24.60
2019-03-02T08:08:18.919Z,23.47
2019-03-02T08:10:48.343Z,23.45
2019-03-02T08:13:17.870Z,22.70
2019-03-02T08:15:48.551Z,22.05
2019-03-02T08:18:18.078Z,23.35
2019-03-02T08:20:48.772Z,21.13
2019-03-02T08:23:18.291Z,24.27
2019-03-02T08:25:47.702Z,21.60
2019-03-02T08:28:17.152Z,21.70
2019-03-02T08:30:46.649Z,20.75
2019-03-02T08:33:16.471Z,20.00
2019-03-02T08:35:48.119Z,19.55
2019-03-02T08:38:17.166Z,19.97
2019-03-02T08:40:46.583Z,18.97
2019-03-02T08:43:16.398Z,19.33
2019-03-02T08:45:47.656Z,18.80
2019-03-02T08:48:17.107Z,20.23
2019-03-02T08:50:49.812Z,19.00
2019-03-02T08:53:17.608Z,17.80
2019-03-02T08:55:48.286Z,20.10
2019-03-02T08:58:17.739Z,20.97
2019-03-02T09:00:48.530Z,19.80
2019-03-02T09:03:18.052Z,20.50
2019-03-02T09:05:51.409Z,20.33
2019-03-02T09:08:18.682Z,20.90
2019-03-02T09:10:49.169Z,21.53
2019-03-02T09:13:19.796Z,22.33
2019-03-02T09:15:50.691Z,20.63
2019-03-02T09:18:20.302Z,22.10
2019-03-02T09:20:49.783Z,22.60
2019-03-02T09:23:19.303Z,22.73
2019-03-02T09:25:48.823Z,22.40
2019-03-02T09:28:18.344Z,23.83
2019-03-02T09:30:47.859Z,23.20
2019-03-02T09:33:17.276Z,22.80
2019-03-02T09:35:48.668Z,23.07
2019-03-02T09:38:20.937Z,23.90
2019-03-02T09:40:49.305Z,24.40
2019-03-02T09:43:19.921Z,23.97
2019-03-02T09:45:49.439Z,24.70
2019-03-02T09:48:21.030Z,26.40
2019-03-02T09:50:50.059Z,23.97
2019-03-02T09:53:19.540Z,25.40
2019-03-02T09:55:51.931Z,25.40
2019-03-02T09:58:23.657Z,26.00
2019-03-02T10:00:51.315Z,24.93
2019-03-02T10:03:23.008Z,25.80
2019-03-02T10:05:53.235Z,26.10
2019-03-02T10:08:22.718Z,26.50
2019-03-02T10:10:52.232Z,25.67
2019-03-02T10:13:21.714Z,29.00
2019-03-02T10:15:51.228Z,27.67
2019-03-02T10:18:20.707Z,30.50
2019-03-02T10:20:51.445Z,26.70
2019-03-02T10:23:21.006Z,27.10
2019-03-02T10:25:51.739Z,29.33
2019-03-02T10:28:21.228Z,29.87
2019-03-02T10:30:51.117Z,27.30
2019-03-02T10:33:20.599Z,27.23
2019-03-02T10:35:53.272Z,24.70
2019-03-02T10:38:22.430Z,25.90
2019-03-02T10:40:53.450Z,28.13
2019-03-02T10:43:22.943Z,25.40
2019-03-02T10:45:54.670Z,24.80
2019-03-02T10:48:24.134Z,26.00
2019-03-02T10:50:55.957Z,24.10
2019-03-02T10:53:25.479Z,27.30
2019-03-02T10:55:56.261Z,25.00
2019-03-02T10:58:25.666Z,26.03
2019-03-02T11:00:56.499Z,25.27
2019-03-02T11:03:27.912Z,23.10
2019-03-02T11:06:18.471Z,22.33
2019-03-02T11:09:06.075Z,23.80
2019-03-02T11:11:38.122Z,24.70
2019-03-02T11:14:09.248Z,23.63
2019-03-02T11:16:44.535Z,24.07
2019-03-02T11:19:20.330Z,24.30
2019-03-02T11:22:01.814Z,25.40
2019-03-02T11:24:35.631Z,21.70
2019-03-02T11:27:13.175Z,23.10
2019-03-02T11:29:52.282Z,25.13
2019-03-02T11:32:26.155Z,23.47
2019-03-02T11:35:06.716Z,20.83
2019-03-02T11:37:43.386Z,21.70
2019-03-02T11:40:33.093Z,21.40
2019-03-02T11:43:12.930Z,22.30
2019-03-02T11:45:58.554Z,22.53
2019-03-02T11:48:56.738Z,21.53
2019-03-02T11:51:31.151Z,21.17
2019-03-02T11:54:20.324Z,21.67
2019-03-02T11:56:55.101Z,23.60
2019-03-02T11:59:31.623Z,21.63
2019-03-02T12:02:04.347Z,21.67
2019-03-02T12:04:35.490Z,23.20
2019-03-02T12:07:18.500Z,21.93
2019-03-02T12:10:06.346Z,21.63
2019-03-02T12:12:42.051Z,21.83
2019-03-02T12:15:13.307Z,21.70
2019-03-02T12:17:57.935Z,22.00
2019-03-02T12:20:41.304Z,22.50
2019-03-02T12:23:10.655Z,20.73
2019-03-02T12:25:43.128Z,22.50
2019-03-02T12:28:17.466Z,21.50
2019-03-02T12:30:55.817Z,22.17
2019-03-02T12:33:35.679Z,21.10
2019-03-02T12:36:08.211Z,21.10
2019-03-02T12:38:44.589Z,22.50
2019-03-02T12:41:17.507Z,21.40
2019-03-02T12:44:03.842Z,21.23
2019-03-02T12:46:55.113Z,22.80
2019-03-02T12:49:24.878Z,22.10
2019-03-02T12:51:57.505Z,21.10
2019-03-02T12:54:39.165Z,23.23
2019-03-02T12:57:16.142Z,24.07
2019-03-02T13:00:05.240Z,22.40
2019-03-02T13:02:51.294Z,22.43
2019-03-02T13:05:22.887Z,23.37
2019-03-02T13:07:54.828Z,22.20
2019-03-02T13:10:27.540Z,22.07
2019-03-02T13:13:10.867Z,21.57
2019-03-02T13:15:49.271Z,23.30
2019-03-02T13:18:23.124Z,22.57
2019-03-02T13:21:08.092Z,21.97
2019-03-02T13:23:42.570Z,22.87
2019-03-02T13:26:21.145Z,21.70
2019-03-02T13:28:52.262Z,22.10
2019-03-02T13:31:26.123Z,21.60
2019-03-02T13:34:13.435Z,21.97
2019-03-02T13:36:47.315Z,22.10
2019-03-02T13:39:24.087Z,21.73
2019-03-02T13:42:00.996Z,21.00
2019-03-02T13:44:35.027Z,21.67
2019-03-02T13:47:10.599Z,21.97
2019-03-02T13:49:49.456Z,21.73
2019-03-02T13:52:24.361Z,21.60
2019-03-02T13:55:01.492Z,21.30
2019-03-02T13:57:34.111Z,21.90
2019-03-02T14:00:23.356Z,20.37
2019-03-02T14:02:57.283Z,21.30
2019-03-02T14:05:28.548Z,19.20
2019-03-02T14:08:14.608Z,22.40
2019-03-02T14:11:02.898Z,21.33
2019-03-02T14:13:34.163Z,21.30
2019-03-02T14:16:23.031Z,23.20
2019-03-02T14:18:57.335Z,23.43
2019-03-02T14:21:29.775Z,21.43
2019-03-02T14:24:03.983Z,22.87
2019-03-02T14:26:44.002Z,25.67
2019-03-02T14:29:15.226Z,26.20
2019-03-02T14:31:49.298Z,25.70
2019-03-02T14:34:20.416Z,24.03
2019-03-02T14:36:52.867Z,23.07
2019-03-02T14:39:23.987Z,26.40
2019-03-02T14:42:07.884Z,26.27
2019-03-02T14:44:39.722Z,25.43
2019-03-02T14:47:14.979Z,26.70
2019-03-02T14:49:46.028Z,24.40
2019-03-02T14:52:18.488Z,26.13
2019-03-02T14:54:58.339Z,26.23
2019-03-02T14:57:35.215Z,23.27
2019-03-02T15:00:09.247Z,26.20
2019-03-02T15:02:44.571Z,23.10
2019-03-02T15:05:16.041Z,22.53
2019-03-02T15:07:58.875Z,20.10
2019-03-02T15:10:36.806Z,19.70
2019-03-02T15:13:19.534Z,22.80
2019-03-02T15:16:02.491Z,19.30
2019-03-02T15:18:42.936Z,17.50
2019-03-02T15:21:13.981Z,18.80
2019-03-02T15:23:48.568Z,18.13
2019-03-02T15:26:19.692Z,18.57
2019-03-02T15:28:50.843Z,18.70
2019-03-02T15:31:26.280Z,21.50
2019-03-02T15:33:57.435Z,19.40
2019-03-02T15:36:47.791Z,18.00
2019-03-02T15:39:36.463Z,18.47
2019-03-02T15:42:22.551Z,21.40
2019-03-02T15:44:53.745Z,21.20
2019-03-02T15:47:28.725Z,22.40
2019-03-02T15:50:02.485Z,20.70
2019-03-02T15:52:40.084Z,20.40
2019-03-02T15:55:23.430Z,19.53
2019-03-02T15:58:09.424Z,20.57
2019-03-02T16:00:40.553Z,18.40
2019-03-02T16:03:15.132Z,18.30
2019-03-02T16:05:47.892Z,21.13
2019-03-02T16:08:18.419Z,18.00
2019-03-02T16:10:59.771Z,17.70
2019-03-02T16:13:33.747Z,17.40
2019-03-02T16:16:14.884Z,17.70
2019-03-02T16:18:49.238Z,18.20
2019-03-02T16:21:19.567Z,16.93
2019-03-02T16:24:00.356Z,17.83
2019-03-02T16:26:31.574Z,18.43
2019-03-02T16:29:02.889Z,20.10
2019-03-02T16:31:41.162Z,23.40
2019-03-02T16:34:16.593Z,28.70
2019-03-02T16:37:03.906Z,23.60
2019-03-02T16:39:51.308Z,21.97
2019-03-02T16:42:22.427Z,19.80
2019-03-02T16:45:02.695Z,19.83
2019-03-02T16:47:37.740Z,18.40
2019-03-02T16:50:16.824Z,15.80
2019-03-02T16:52:48.851Z,18.40
2019-03-02T16:55:32.120Z,17.70
2019-03-02T16:58:09.276Z,18.30
2019-03-02T17:00:56.191Z,17.23
2019-03-02T17:03:27.315Z,18.13
2019-03-02T17:05:58.462Z,18.67
2019-03-02T17:08:45.799Z,18.60
2019-03-02T17:11:25.755Z,17.63
2019-03-02T17:13:59.316Z,18.10
2019-03-02T17:16:32.194Z,17.70
2019-03-02T17:19:19.376Z,18.60
2019-03-02T17:21:56.586Z,17.63
2019-03-02T17:24:46.758Z,17.70
2019-03-02T17:27:23.754Z,18.83
2019-03-02T17:30:11.047Z,19.80
2019-03-02T17:32:51.028Z,19.57
2019-03-02T17:35:25.443Z,18.70
2019-03-02T17:37:55.427Z,18.53
2019-03-02T17:40:29.608Z,18.57
2019-03-02T17:43:03.718Z,17.87
2019-03-02T17:45:37.941Z,23.77
2019-03-02T17:48:09.295Z,21.27
2019-03-02T17:50:41.715Z,21.17
2019-03-02T17:53:16.291Z,20.03
2019-03-02T17:55:50.099Z,18.60
2019-03-02T17:58:21.263Z,19.33
2019-03-02T18:01:10.188Z,20.87
2019-03-02T18:03:50.095Z,20.00
2019-03-02T18:06:27.384Z,19.20
2019-03-02T18:09:00.927Z,17.27
2019-03-02T18:11:36.471Z,17.23
2019-03-02T18:14:07.619Z,17.60
2019-03-02T18:16:41.351Z,18.93
2019-03-02T18:19:09.879Z,17.87
2019-03-02T18:21:40.664Z,18.63
2019-03-02T18:24:10.575Z,17.10
2019-03-02T18:26:41.559Z,18.90
2019-03-02T18:29:11.084Z,17.60
2019-03-02T18:31:42.240Z,17.60
2019-03-02T18:34:13.391Z,19.87
2019-03-02T18:36:45.954Z,17.70
2019-03-02T18:39:14.112Z,17.90
2019-03-02T18:41:44.995Z,19.37
2019-03-02T18:44:17.767Z,18.70
2019-03-02T18:46:45.685Z,20.17
2019-03-02T18:49:22.367Z,19.00
2019-03-02T18:52:12.931Z,19.27
2019-03-02T18:54:45.126Z,20.33
2019-03-02T18:57:15.145Z,18.13
2019-03-02T18:59:45.231Z,19.57
2019-03-02T19:02:15.766Z,19.63
2019-03-02T19:04:45.920Z,19.23
2019-03-02T19:07:16.804Z,19.23
2019-03-02T19:09:46.322Z,19.83
2019-03-02T19:12:15.799Z,19.40
2019-03-02T19:14:45.322Z,19.83
2019-03-02T19:17:14.803Z,19.87
2019-03-02T19:19:44.327Z,20.93
2019-03-02T19:22:15.115Z,20.70
2019-03-02T19:24:44.839Z,23.80
2019-03-02T19:27:14.358Z,19.67
2019-03-02T19:29:43.883Z,20.50
2019-03-02T19:32:13.363Z,17.77
2019-03-02T19:34:42.811Z,19.60
2019-03-02T19:37:12.295Z,18.17
2019-03-02T19:39:41.740Z,20.03
2019-03-02T19:42:11.222Z,20.47
2019-03-02T19:44:41.445Z,19.17
2019-03-02T19:47:13.151Z,18.90
2019-03-02T19:49:42.657Z,18.77
2019-03-02T19:52:13.544Z,18.37
2019-03-02T19:54:43.062Z,18.03
2019-03-02T19:57:12.940Z,18.60
2019-03-02T19:59:42.676Z,17.93
2019-03-02T20:02:13.611Z,18.87
2019-03-02T20:04:43.071Z,19.60
2019-03-02T20:07:12.554Z,19.17
2019-03-02T20:09:42.078Z,18.77
2019-03-02T20:12:12.856Z,18.00
2019-03-02T20:14:42.384Z,18.50
2019-03-02T20:17:12.145Z,23.87
2019-03-02T20:19:41.650Z,28.63
2019-03-02T20:22:11.137Z,27.90
2019-03-02T20:24:40.651Z,25.17
2019-03-02T20:27:11.567Z,18.40
2019-03-02T20:29:41.093Z,19.73
2019-03-02T20:32:10.568Z,17.70
2019-03-02T20:34:40.090Z,17.90
2019-03-02T20:37:09.822Z,17.00
2019-03-02T20:39:39.386Z,16.30
2019-03-02T20:42:10.421Z,17.67
2019-03-02T20:44:40.031Z,16.50
2019-03-02T20:47:10.994Z,16.30
2019-03-02T20:49:40.775Z,16.17
2019-03-02T20:52:11.787Z,16.80
2019-03-02T20:54:41.498Z,15.60
2019-03-02T20:57:12.364Z,15.30
2019-03-02T20:59:42.017Z,14.80
2019-03-02T21:02:13.162Z,13.10
2019-03-02T21:04:42.638Z,13.73
2019-03-02T21:07:12.221Z,13.47
2019-03-02T21:09:41.771Z,14.70
2019-03-02T21:12:11.292Z,12.70
2019-03-02T21:14:40.775Z,13.73
2019-03-02T21:17:10.290Z,13.87
2019-03-02T21:19:39.802Z,12.40
2019-03-02T21:22:10.782Z,11.23
2019-03-02T21:24:40.323Z,11.37
2019-03-02T21:27:09.882Z,11.70
2019-03-02T21:29:39.364Z,10.37
2019-03-02T21:32:10.451Z,10.80
2019-03-02T21:34:39.858Z,9.97
2019-03-02T21:37:10.579Z,10.80
2019-03-02T21:39:39.993Z,10.60
2019-03-02T21:42:09.435Z,11.20
2019-03-02T21:44:38.848Z,10.20
2019-03-02T21:47:09.655Z,9.80
2019-03-02T21:49:39.070Z,10.27
2019-03-02T21:52:09.885Z,9.90
2019-03-02T21:54:39.295Z,10.00
2019-03-02T21:57:08.812Z,9.37
2019-03-02T21:59:38.226Z,9.80
2019-03-02T22:02:07.735Z,10.10
2019-03-02T22:04:38.974Z,9.17
2019-03-02T22:07:08.561Z,9.20
2019-03-02T22:09:37.975Z,9.00
2019-03-02T22:12:08.791Z,9.87
2019-03-02T22:14:38.207Z,12.13
2019-03-02T22:17:07.659Z,10.37
2019-03-02T22:19:37.068Z,8.13
2019-03-02T22:22:07.878Z,7.60
2019-03-02T22:24:37.359Z,7.83
2019-03-02T22:27:06.811Z,8.37
2019-03-02T22:29:36.223Z,8.10
2019-03-02T22:32:07.148Z,7.60
2019-03-02T22:34:36.559Z,7.50
2019-03-02T22:37:05.960Z,7.53
2019-03-02T22:39:35.410Z,8.27
2019-03-02T22:42:04.808Z,7.60
2019-03-02T22:44:34.242Z,7.57
2019-03-02T22:47:03.725Z,6.60
2019-03-02T22:49:33.162Z,6.57
2019-03-02T22:52:02.567Z,7.13
2019-03-02T22:54:32.033Z,6.47
2019-03-02T22:57:03.014Z,6.73
2019-03-02T22:59:32.446Z,6.97
2019-03-02T23:02:05.103Z,6.70
2019-03-02T23:04:34.685Z,5.97
2019-03-02T23:07:05.458Z,7.47
2019-03-02T23:09:34.957Z,6.80
2019-03-02T23:12:05.906Z,6.90
2019-03-02T23:14:35.456Z,6.30
2019-03-02T23:17:06.217Z,7.17
2019-03-02T23:19:35.650Z,7.17
2019-03-02T23:22:06.428Z,9.50
2019-03-02T23:24:35.934Z,6.83
2019-03-02T23:27:06.610Z,7.63
2019-03-02T23:29:36.052Z,7.40
2019-03-02T23:32:06.922Z,7.10
2019-03-02T23:34:37.381Z,13.77
2019-03-02T23:37:07.024Z,7.03
2019-03-02T23:39:36.524Z,7.80
2019-03-02T23:42:06.008Z,8.93
2019-03-02T23:44:36.999Z,8.40
2019-03-02T23:47:06.413Z,7.20
2019-03-02T23:49:35.862Z,7.13
2019-03-02T23:52:05.285Z,7.03
2019-03-02T23:54:34.809Z,8.70
2019-03-02T23:57:04.292Z,10.13
2019-03-02T23:59:34.199Z,7.60
